Latest Weather Observations for Horsley Park

IDN60901

Issued at 10:21 am EST Monday 29 August 2016 (issued every 10 minutes, with the page automatically refreshed every 10 minutes)

About weather observations | Map of Sydney area stations | Latest observations for Sydney area | Other Formats
Station Details ID: 067119 Name: HORSLEY PARK EQUESTRIAN CENTRE AWS Lat: -33.85 Lon: 150.86 Height: 100.0 m
Data from the previous 72 hours. | See also: Recent months at Horsley Park
Date/Time
EST
Temp
°C
App
Temp
°C
Dew
Point
°C
Rel
Hum
%
Delta-T
°C
Wind Press
QNH
hPa
Press
MSL
hPa
Rain since
9am
mm
Dir  Spd
km/h
Gust
km/h
Spd
kts
Gust
kts
29/10:00am 11.1 8.6 4.8 65 2.9 NNW 7 13 4 7 - - 0.0
29/09:30am 10.7 8.9 5.5 70 2.4 NNW 4 6 2 3 - - 0.0
29/09:00am 10.3 8.4 6.5 77 1.8 NW 6 7 3 4 - - 0.0
29/08:30am 10.4 8.5 6.5 77 1.8 WNW 6 7 3 4 - - 0.0
29/08:00am 8.7 7.0 6.0 83 1.2 NW 4 6 2 3 - - 0.0
29/07:30am 7.0 4.7 5.6 91 0.6 NW 7 13 4 7 - - 0.0
29/07:00am 5.7 4.7 5.6 99 0.0 CALM 0 0 0 0 - - 0.0
29/06:30am 4.0 2.6 3.4 96 0.2 CALM 0 0 0 0 - - 0.0
29/06:00am 4.2 2.8 3.6 96 0.2 CALM 0 0 0 0 - - 0.0
29/05:30am 4.5 3.1 3.8 95 0.3 CALM 0 0 0 0 - - 0.0
29/05:00am 4.6 3.3 3.9 95 0.3 CALM 0 0 0 0 - - 0.0
29/04:30am 4.7 3.3 3.7 93 0.4 CALM 0 0 0 0 - - 0.0
29/04:00am 5.2 3.9 3.9 91 0.5 CALM 0 0 0 0 - - 0.0
29/03:30am 5.7 4.5 4.5 92 0.5 CALM 0 0 0 0 - - 0.0
29/03:00am 5.6 4.3 4.2 91 0.6 CALM 0 0 0 0 - - 0.0
29/02:30am 5.9 4.7 4.4 90 0.6 CALM 0 0 0 0 - - 0.0
29/02:00am 5.9 4.6 4.1 88 0.8 CALM 0 0 0 0 - - 0.0
29/01:30am 6.5 5.3 4.5 87 0.9 CALM 0 0 0 0 - - 0.0
29/01:00am 6.6 5.3 4.1 84 1.1 CALM 0 0 0 0 - - 0.0
29/12:30am 6.6 4.9 3.8 82 1.2 NNW 2 4 1 2 - - 0.0
29/12:00am 9.0 7.1 5.0 76 1.8 WNW 4 6 2 3 - - 0.0
 
Date/Time
EST
Temp
°C
App
Temp
°C
Dew
Point
°C
Rel
Hum
%
Delta-T
°C
Wind Press
QNH
hPa
Press
MSL
hPa
Rain since
9am
mm
Dir  Spd
km/h
Gust
km/h
Spd
kts
Gust
kts
28/11:30pm 8.4 7.2 4.8 78 1.6 CALM 0 0 0 0 - - 0.0
28/11:00pm 8.7 7.6 5.1 78 1.6 CALM 0 0 0 0 - - 0.0
28/10:30pm 8.0 6.4 4.4 78 1.6 WSW 2 4 1 2 - - 0.0
28/10:00pm 8.3 7.2 5.1 80 1.4 CALM 0 4 0 2 - - 0.0
28/09:30pm 8.6 7.0 4.6 76 1.8 SW 2 6 1 3 - - 0.0
28/09:00pm 8.6 7.3 4.2 74 1.9 CALM 0 0 0 0 - - 0.0
28/08:30pm 9.0 7.6 3.4 68 2.4 CALM 0 0 0 0 - - 0.0
28/08:00pm 9.7 7.4 3.0 63 2.9 W 4 7 2 4 - - 0.0
28/07:30pm 10.0 8.6 3.5 64 2.8 CALM 0 0 0 0 - - 0.0
28/07:00pm 10.3 8.9 3.6 63 3.0 CALM 0 0 0 0 - - 0.0
28/06:30pm 11.1 9.7 3.6 60 3.3 CALM 0 2 0 1 - - 0.0
28/06:00pm 12.4 10.2 3.4 54 4.0 SSW 4 6 2 3 - - 0.0
28/05:30pm 14.4 11.8 3.2 47 5.1 SSW 6 7 3 4 - - 0.0
28/05:00pm 15.5 12.9 3.0 43 5.7 S 6 11 3 6 - - 0.0
28/04:30pm 16.3 12.3 2.7 40 6.2 SSW 13 19 7 10 - - 0.0
28/04:00pm 16.4 12.0 2.8 40 6.2 SSW 15 24 8 13 - - 0.0
28/03:30pm 15.9 11.5 2.7 41 6.0 SSW 15 22 8 12 - - 0.0
28/03:00pm 16.9 12.8 2.5 38 6.6 SW 13 22 7 12 - - 0.0
28/02:30pm 17.4 12.0 1.0 33 7.3 SSW 19 28 10 15 - - 0.0
28/02:00pm 18.3 13.1 2.6 35 7.2 SW 19 30 10 16 - - 0.0
28/01:30pm 18.8 13.9 1.8 32 7.7 SW 17 24 9 13 - - 0.0
28/01:00pm 18.7 14.6 2.5 34 7.5 W 13 22 7 12 - - 0.0
28/12:30pm 18.7 15.0 2.1 33 7.6 WSW 11 17 6 9 - - 0.0
28/12:00pm 18.1 15.4 2.4 35 7.2 WSW 6 17 3 9 - - 0.0
28/11:30am 16.4 13.8 4.1 44 5.8 W 7 17 4 9 - - 0.0
28/11:00am 16.2 13.6 4.3 45 5.6 WNW 7 13 4 7 - - 0.0
28/10:30am 14.8 11.6 3.0 45 5.3 W 9 17 5 9 - - 0.0
28/10:00am 14.2 11.4 3.1 47 5.0 WNW 7 17 4 9 - - 0.0
28/09:30am 12.5 10.0 3.5 54 4.0 NNW 6 9 3 5 - - 0.0
28/09:00am 11.2 8.8 4.2 62 3.1 NNE 6 9 3 5 - - 0.0
28/08:30am 9.3 7.5 3.7 68 2.4 N 2 4 1 2 - - 0.0
28/08:00am 7.1 5.2 3.0 75 1.7 N 2 4 1 2 - - 0.0
28/07:30am 5.5 3.6 2.8 83 1.1 NNE 2 4 1 2 - - 0.0
28/07:00am 3.7 2.0 1.6 86 0.8 CALM 0 0 0 0 - - 0.0
28/06:30am 3.6 1.4 1.0 83 1.0 NNW 2 4 1 2 - - 0.0
28/06:00am 5.4 2.8 1.1 74 1.7 WNW 4 4 2 2 - - 0.0
28/05:30am 6.6 4.0 0.9 67 2.3 N 4 7 2 4 - - 0.0
28/05:00am 8.1 5.5 0.8 60 2.9 WNW 4 9 2 5 - - 0.0
28/04:30am 9.1 5.5 0.8 56 3.4 W 9 17 5 9 - - 0.0
28/04:00am 8.8 5.9 1.2 59 3.1 W 6 13 3 7 - - 0.0
28/03:30am 9.1 5.6 1.0 57 3.3 WSW 9 15 5 8 - - 0.0
28/03:00am 9.0 4.7 1.2 58 3.2 WSW 13 20 7 11 - - 0.0
28/02:30am 8.5 5.0 1.2 60 3.0 WSW 9 13 5 7 - - 0.0
28/02:00am 8.5 5.4 1.4 61 2.9 WSW 7 11 4 6 - - 0.0
28/01:30am 8.7 5.7 1.8 62 2.9 SW 7 9 4 5 - - 0.0
28/01:00am 8.2 5.7 1.8 64 2.6 WSW 4 7 2 4 - - 0.0
28/12:30am 8.2 5.8 2.0 65 2.6 W 4 6 2 3 - - 0.0
28/12:00am 5.8 4.0 1.5 74 1.7 CALM 0 0 0 0 - - 0.0
 
Date/Time
EST
Temp
°C
App
Temp
°C
Dew
Point
°C
Rel
Hum
%
Delta-T
°C
Wind Press
QNH
hPa
Press
MSL
hPa
Rain since
9am
mm
Dir  Spd
km/h
Gust
km/h
Spd
kts
Gust
kts
27/11:30pm 6.7 5.1 2.2 73 1.9 CALM 0 0 0 0 - - 0.0
27/11:00pm 8.2 6.4 0.9 60 3.0 CALM 0 2 0 1 - - 0.0
27/10:30pm 10.5 7.5 1.1 52 3.9 WSW 6 7 3 4 - - 0.0
27/10:00pm 11.3 8.1 1.0 49 4.3 SW 7 11 4 6 - - 0.0
27/09:30pm 11.3 8.4 1.3 50 4.2 SW 6 9 3 5 - - 0.0
27/09:00pm 11.8 8.1 2.5 53 4.0 SW 11 15 6 8 - - 0.0
27/08:30pm 11.2 10.0 6.5 73 2.2 W 2 6 1 3 - - 0.0
27/08:00pm 10.4 9.4 5.4 71 2.3 CALM 0 4 0 2 - - 0.0
27/07:30pm 12.1 10.7 5.5 64 3.1 NW 2 6 1 3 - - 0.0
27/07:00pm 13.3 11.6 5.7 60 3.6 NE 4 7 2 4 - - 0.0
27/06:30pm 12.1 10.8 4.1 58 3.6 CALM 0 0 0 0 - - 0.0
27/06:00pm 13.1 11.9 4.5 56 4.0 CALM 0 0 0 0 - - 0.0
27/05:30pm 15.2 13.9 4.0 47 5.2 CALM 0 0 0 0 - - 0.0
27/05:00pm 17.1 15.7 3.4 40 6.4 CALM 0 0 0 0 - - 0.0
27/04:30pm 17.9 16.3 2.2 35 7.2 CALM 0 0 0 0 - - 0.0
27/04:00pm 18.6 17.1 2.9 35 7.3 CALM 0 7 0 4 - - 0.0
27/03:30pm 18.4 16.3 3.8 38 6.9 N 4 7 2 4 - - 0.0
27/03:00pm 18.2 15.6 3.3 37 7.0 NNE 6 13 3 7 - - 0.0
27/02:30pm 18.1 15.2 2.4 35 7.2 N 7 15 4 8 - - 0.0
27/02:00pm 17.8 15.0 2.9 37 6.9 NNW 7 15 4 8 - - 0.0
27/01:30pm 17.1 13.6 1.1 34 7.1 N 9 19 5 10 - - 0.0
27/01:00pm 17.0 13.5 1.4 35 6.9 NNW 9 20 5 11 - - 0.0
27/12:30pm 16.6 14.1 3.7 42 6.0 N 6 11 3 6 - - 0.0
27/12:00pm 16.7 15.3 3.7 42 6.1 CALM 0 9 0 5 - - 0.0
27/11:30am 15.7 13.6 3.8 45 5.5 NNW 4 9 2 5 - - 0.0
27/11:00am 14.8 13.1 3.9 48 5.0 N 2 7 1 4 - - 0.0
27/10:30am 13.6 11.2 4.2 53 4.3 W 6 7 3 4 - - 0.0
27/10:00am 13.1 11.4 5.8 61 3.5 WNW 4 7 2 4 - - 0.0
27/09:30am 11.6 9.1 3.9 59 3.5 WNW 6 11 3 6 - - 0.0
27/09:00am 10.8 8.1 3.8 62 3.1 WSW 7 11 4 6 - - 0.0
27/08:30am 9.8 6.5 2.6 61 3.1 WSW 9 17 5 9 - - 0.0
27/08:00am 8.9 6.0 2.5 64 2.7 WSW 7 15 4 8 - - 0.0
27/07:30am 7.7 4.4 2.6 70 2.1 WSW 9 15 5 8 - - 0.0
27/07:00am 6.7 3.4 2.2 73 1.9 WSW 9 15 5 8 - - 0.0
27/06:30am 5.5 2.5 1.8 77 1.5 WSW 7 9 4 5 - - 0.0
27/06:00am 5.8 2.4 1.7 75 1.7 SW 9 13 5 7 - - 0.0
27/05:30am 5.5 2.1 1.8 77 1.5 SW 9 13 5 7 - - 0.0
27/05:00am 5.2 2.7 1.5 77 1.5 W 4 6 2 3 - - 0.0
27/04:30am 6.5 3.1 1.8 72 1.9 SW 9 13 5 7 - - 0.0
27/04:00am 6.5 2.7 1.6 71 2.0 SW 11 13 6 7 - - 0.0
27/03:30am 7.4 3.2 1.7 67 2.3 SW 13 17 7 9 - - 0.0
27/03:00am 7.1 3.7 1.8 69 2.2 SW 9 13 5 7 - - 0.0
27/02:30am 6.7 3.0 2.2 73 1.9 SW 11 15 6 8 - - 0.0
27/02:00am 7.5 3.8 2.2 69 2.2 SW 11 15 6 8 - - 0.0
27/01:30am 7.4 3.8 2.9 73 1.9 SW 11 17 6 9 - - 0.0
27/01:00am 7.8 4.0 3.7 75 1.8 SW 13 17 7 9 - - 0.0
27/12:30am 8.1 5.6 4.5 78 1.6 SW 7 9 4 5 - - 0.0
27/12:00am 8.1 5.8 5.0 81 1.4 SW 6 7 3 4 - - 0.0
 
Date/Time
EST
Temp
°C
App
Temp
°C
Dew
Point
°C
Rel
Hum
%
Delta-T
°C
Wind Press
QNH
hPa
Press
MSL
hPa
Rain since
9am
mm
Dir  Spd
km/h
Gust
km/h
Spd
kts
Gust
kts
26/11:30pm 9.1 6.8 5.7 79 1.6 SW 7 9 4 5 - - 0.0
26/11:00pm 7.3 6.2 5.3 87 0.9 CALM 0 0 0 0 - - 0.0
26/10:30pm 8.2 6.0 5.5 83 1.2 SSW 6 6 3 3 - - 0.0
26/10:00pm 8.5 6.3 5.3 80 1.4 SSE 6 7 3 4 - - 0.0
26/09:30pm 9.6 7.5 5.6 76 1.8 SW 6 6 3 3 - - 0.0
26/09:00pm 9.4 7.6 5.6 77 1.7 SW 4 7 2 4 - - 0.0
26/08:30pm 10.4 8.7 6.0 74 2.0 SW 4 6 2 3 - - 0.0
26/08:00pm 10.3 8.6 5.7 73 2.1 SW 4 6 2 3 - - 0.0
26/07:30pm 10.7 9.0 6.1 73 2.2 S 4 6 2 3 - - 0.0
26/07:00pm 12.1 10.4 5.7 65 3.0 SSE 4 6 2 3 - - 0.0
26/06:30pm 12.7 10.6 5.6 62 3.3 SSE 6 13 3 7 - - 0.0
26/06:00pm 12.8 10.7 5.7 62 3.3 SSE 6 9 3 5 - - 0.0
26/05:30pm 13.2 9.6 5.1 58 3.8 SE 13 19 7 10 - - 0.0
26/05:00pm 13.4 10.2 5.3 58 3.8 SE 11 17 6 9 - - 0.0
26/04:30pm 14.8 11.3 5.3 53 4.5 ESE 13 19 7 10 - - 0.0
26/04:00pm 15.1 12.8 4.8 50 4.8 ESE 6 9 3 5 - - 0.0
26/03:30pm 15.1 12.3 5.0 51 4.8 SE 9 17 5 9 - - 0.0
26/03:00pm 14.8 12.7 3.9 48 5.0 E 4 9 2 5 - - 0.0
26/02:30pm 14.2 11.1 3.7 49 4.8 E 9 15 5 8 - - 0.0
26/02:00pm 14.8 12.3 1.7 41 5.8 ESE 4 15 2 8 - - 0.0
26/01:30pm 15.6 13.1 1.7 39 6.2 SW 4 9 2 5 - - 0.0
26/01:00pm 13.9 9.9 3.1 48 4.9 S 13 20 7 11 - - 0.0
26/12:30pm 14.9 12.2 2.8 44 5.4 WSW 6 11 3 6 - - 0.0
26/12:00pm 14.7 10.5 1.9 42 5.6 SW 13 20 7 11 - - 0.0
26/11:30am 14.9 12.3 4.3 49 4.9 SSW 7 17 4 9 - - 0.0
26/11:00am 13.7 9.6 2.3 46 5.0 SW 13 22 7 12 - - 0.0
26/10:30am 13.1 8.7 2.9 50 4.5 SW 15 26 8 14 - - 0.0

Latest Capital City Observations: Canberra | Sydney | Melbourne | Brisbane | Adelaide | Perth | Hobart | Darwin

Other Formats:

Comma delimited format used in spreadsheet applications
http://www.bom.gov.au/fwo/IDN60901/IDN60901.94760.axf

JavaScript Object Notation format (JSON) in row-major order
http://www.bom.gov.au/fwo/IDN60901/IDN60901.94760.json